sensor_id;sensor_type;location;lat;lon;timestamp;P1;durP1;ratioP1;P2;durP2;ratioP2
7833;SDS011;3962;42.696;23.354;2023-02-28T00:01:26;24.47;;;13.63;;
7833;SDS011;3962;42.696;23.354;2023-02-28T00:03:53;22.13;;;14.17;;
7833;SDS011;3962;42.696;23.354;2023-02-28T00:06:19;23.87;;;14.73;;
7833;SDS011;3962;42.696;23.354;2023-02-28T00:08:47;27.63;;;14.53;;
7833;SDS011;3962;42.696;23.354;2023-02-28T00:11:14;31.47;;;15.77;;
7833;SDS011;3962;42.696;23.354;2023-02-28T00:13:42;26.63;;;14.70;;
7833;SDS011;3962;42.696;23.354;2023-02-28T00:16:14;24.60;;;14.97;;
7833;SDS011;3962;42.696;23.354;2023-02-28T00:18:42;27.10;;;15.03;;
7833;SDS011;3962;42.696;23.354;2023-02-28T00:21:08;24.77;;;14.27;;
7833;SDS011;3962;42.696;23.354;2023-02-28T00:23:36;32.57;;;16.37;;
7833;SDS011;3962;42.696;23.354;2023-02-28T00:26:03;31.10;;;15.10;;
7833;SDS011;3962;42.696;23.354;2023-02-28T00:28:30;29.17;;;15.20;;
7833;SDS011;3962;42.696;23.354;2023-02-28T00:30:57;32.93;;;17.30;;
7833;SDS011;3962;42.696;23.354;2023-02-28T00:33:26;34.87;;;17.33;;
7833;SDS011;3962;42.696;23.354;2023-02-28T00:36:01;37.23;;;18.00;;
7833;SDS011;3962;42.696;23.354;2023-02-28T00:38:32;36.80;;;18.20;;
7833;SDS011;3962;42.696;23.354;2023-02-28T00:40:58;32.20;;;18.00;;
7833;SDS011;3962;42.696;23.354;2023-02-28T00:43:29;30.77;;;17.63;;
7833;SDS011;3962;42.696;23.354;2023-02-28T00:45:57;32.93;;;18.37;;
7833;SDS011;3962;42.696;23.354;2023-02-28T00:48:24;31.90;;;17.30;;
7833;SDS011;3962;42.696;23.354;2023-02-28T00:50:52;29.77;;;16.47;;
7833;SDS011;3962;42.696;23.354;2023-02-28T00:53:19;30.87;;;16.17;;
7833;SDS011;3962;42.696;23.354;2023-02-28T00:55:47;27.33;;;16.07;;
7833;SDS011;3962;42.696;23.354;2023-02-28T00:58:14;32.27;;;17.17;;
7833;SDS011;3962;42.696;23.354;2023-02-28T01:00:41;30.37;;;15.63;;
7833;SDS011;3962;42.696;23.354;2023-02-28T01:03:08;28.27;;;15.70;;
7833;SDS011;3962;42.696;23.354;2023-02-28T01:05:34;31.70;;;16.60;;
7833;SDS011;3962;42.696;23.354;2023-02-28T01:08:03;29.57;;;15.37;;
7833;SDS011;3962;42.696;23.354;2023-02-28T01:10:30;29.03;;;14.40;;
7833;SDS011;3962;42.696;23.354;2023-02-28T01:12:57;32.33;;;15.70;;
7833;SDS011;3962;42.696;23.354;2023-02-28T01:15:24;25.23;;;14.67;;
7833;SDS011;3962;42.696;23.354;2023-02-28T01:17:51;26.87;;;15.07;;
7833;SDS011;3962;42.696;23.354;2023-02-28T01:20:17;30.80;;;16.83;;
7833;SDS011;3962;42.696;23.354;2023-02-28T01:22:44;25.90;;;14.87;;
7833;SDS011;3962;42.696;23.354;2023-02-28T01:25:13;25.83;;;14.13;;
7833;SDS011;3962;42.696;23.354;2023-02-28T01:27:40;24.03;;;14.00;;
7833;SDS011;3962;42.696;23.354;2023-02-28T01:30:07;33.17;;;16.90;;
7833;SDS011;3962;42.696;23.354;2023-02-28T01:32:35;27.80;;;16.88;;
7833;SDS011;3962;42.696;23.354;2023-02-28T01:35:02;23.60;;;14.97;;
7833;SDS011;3962;42.696;23.354;2023-02-28T01:37:29;27.20;;;15.80;;
7833;SDS011;3962;42.696;23.354;2023-02-28T01:39:56;30.27;;;17.50;;
7833;SDS011;3962;42.696;23.354;2023-02-28T01:42:24;35.57;;;18.03;;
7833;SDS011;3962;42.696;23.354;2023-02-28T01:44:59;31.70;;;17.87;;
7833;SDS011;3962;42.696;23.354;2023-02-28T01:47:29;28.17;;;16.83;;
7833;SDS011;3962;42.696;23.354;2023-02-28T01:49:58;27.87;;;16.70;;
7833;SDS011;3962;42.696;23.354;2023-02-28T01:52:28;32.67;;;17.10;;
7833;SDS011;3962;42.696;23.354;2023-02-28T01:54:56;32.23;;;19.37;;
7833;SDS011;3962;42.696;23.354;2023-02-28T01:57:29;46.30;;;20.90;;
7833;SDS011;3962;42.696;23.354;2023-02-28T02:00:04;39.40;;;19.33;;
7833;SDS011;3962;42.696;23.354;2023-02-28T02:02:34;37.67;;;18.57;;
7833;SDS011;3962;42.696;23.354;2023-02-28T02:05:02;34.03;;;16.57;;
7833;SDS011;3962;42.696;23.354;2023-02-28T02:07:31;30.97;;;17.50;;
7833;SDS011;3962;42.696;23.354;2023-02-28T02:10:00;31.87;;;17.13;;
7833;SDS011;3962;42.696;23.354;2023-02-28T02:12:35;35.13;;;18.97;;
7833;SDS011;3962;42.696;23.354;2023-02-28T02:15:14;34.63;;;18.63;;
7833;SDS011;3962;42.696;23.354;2023-02-28T02:17:45;34.73;;;17.97;;
7833;SDS011;3962;42.696;23.354;2023-02-28T02:26:33;38.30;;;19.00;;
7833;SDS011;3962;42.696;23.354;2023-02-28T02:32:16;37.40;;;18.60;;
7833;SDS011;3962;42.696;23.354;2023-02-28T02:35:07;41.03;;;19.13;;
7833;SDS011;3962;42.696;23.354;2023-02-28T02:37:42;43.13;;;19.83;;
7833;SDS011;3962;42.696;23.354;2023-02-28T02:40:15;37.23;;;19.03;;
7833;SDS011;3962;42.696;23.354;2023-02-28T02:42:48;36.00;;;18.33;;
7833;SDS011;3962;42.696;23.354;2023-02-28T02:45:22;33.83;;;17.40;;
7833;SDS011;3962;42.696;23.354;2023-02-28T02:47:52;46.13;;;20.10;;
7833;SDS011;3962;42.696;23.354;2023-02-28T02:50:24;35.83;;;18.60;;
7833;SDS011;3962;42.696;23.354;2023-02-28T02:52:56;35.50;;;17.40;;
7833;SDS011;3962;42.696;23.354;2023-02-28T02:55:26;35.37;;;17.47;;
7833;SDS011;3962;42.696;23.354;2023-02-28T02:57:54;36.87;;;18.50;;
7833;SDS011;3962;42.696;23.354;2023-02-28T03:00:26;37.23;;;17.47;;
7833;SDS011;3962;42.696;23.354;2023-02-28T03:02:59;35.07;;;16.90;;
7833;SDS011;3962;42.696;23.354;2023-02-28T03:05:30;35.97;;;17.73;;
7833;SDS011;3962;42.696;23.354;2023-02-28T03:08:02;36.80;;;17.00;;
7833;SDS011;3962;42.696;23.354;2023-02-28T03:10:35;37.17;;;15.47;;
7833;SDS011;3962;42.696;23.354;2023-02-28T03:13:09;34.37;;;15.87;;
7833;SDS011;3962;42.696;23.354;2023-02-28T03:15:47;35.43;;;17.07;;
7833;SDS011;3962;42.696;23.354;2023-02-28T03:18:32;32.70;;;16.43;;
7833;SDS011;3962;42.696;23.354;2023-02-28T03:21:09;37.60;;;19.37;;
7833;SDS011;3962;42.696;23.354;2023-02-28T03:23:44;39.63;;;17.30;;
7833;SDS011;3962;42.696;23.354;2023-02-28T03:26:21;37.70;;;17.63;;
7833;SDS011;3962;42.696;23.354;2023-02-28T03:28:52;35.73;;;17.73;;
7833;SDS011;3962;42.696;23.354;2023-02-28T03:31:27;42.77;;;18.33;;
7833;SDS011;3962;42.696;23.354;2023-02-28T03:33:59;39.57;;;19.30;;
7833;SDS011;3962;42.696;23.354;2023-02-28T03:36:33;37.53;;;18.10;;
7833;SDS011;3962;42.696;23.354;2023-02-28T03:39:09;37.47;;;18.97;;
7833;SDS011;3962;42.696;23.354;2023-02-28T03:41:42;40.83;;;19.47;;
7833;SDS011;3962;42.696;23.354;2023-02-28T03:44:16;42.50;;;19.60;;
7833;SDS011;3962;42.696;23.354;2023-02-28T03:46:47;42.67;;;20.03;;
7833;SDS011;3962;42.696;23.354;2023-02-28T03:49:19;43.33;;;20.63;;
7833;SDS011;3962;42.696;23.354;2023-02-28T03:51:50;45.73;;;20.90;;
7833;SDS011;3962;42.696;23.354;2023-02-28T03:54:21;46.00;;;20.57;;
7833;SDS011;3962;42.696;23.354;2023-02-28T03:56:54;46.90;;;22.00;;
7833;SDS011;3962;42.696;23.354;2023-02-28T03:59:27;49.27;;;22.80;;
7833;SDS011;3962;42.696;23.354;2023-02-28T04:01:56;47.40;;;22.23;;
7833;SDS011;3962;42.696;23.354;2023-02-28T04:04:24;50.43;;;22.80;;
7833;SDS011;3962;42.696;23.354;2023-02-28T04:06:53;53.60;;;25.00;;
7833;SDS011;3962;42.696;23.354;2023-02-28T04:09:28;50.13;;;23.60;;
7833;SDS011;3962;42.696;23.354;2023-02-28T04:11:54;46.33;;;20.87;;
7833;SDS011;3962;42.696;23.354;2023-02-28T04:14:21;45.77;;;20.90;;
7833;SDS011;3962;42.696;23.354;2023-02-28T04:16:49;44.90;;;20.77;;
7833;SDS011;3962;42.696;23.354;2023-02-28T04:19:17;45.50;;;20.57;;
7833;SDS011;3962;42.696;23.354;2023-02-28T04:21:44;47.37;;;21.87;;
7833;SDS011;3962;42.696;23.354;2023-02-28T04:24:14;45.57;;;21.53;;
7833;SDS011;3962;42.696;23.354;2023-02-28T04:26:42;47.47;;;21.90;;
7833;SDS011;3962;42.696;23.354;2023-02-28T04:29:11;45.50;;;21.67;;
7833;SDS011;3962;42.696;23.354;2023-02-28T04:31:38;48.63;;;23.67;;
7833;SDS011;3962;42.696;23.354;2023-02-28T04:34:05;60.27;;;24.73;;
7833;SDS011;3962;42.696;23.354;2023-02-28T04:36:33;56.07;;;22.10;;
7833;SDS011;3962;42.696;23.354;2023-02-28T04:38:59;50.47;;;21.43;;
7833;SDS011;3962;42.696;23.354;2023-02-28T04:41:28;50.03;;;20.73;;
7833;SDS011;3962;42.696;23.354;2023-02-28T04:43:54;49.03;;;22.33;;
7833;SDS011;3962;42.696;23.354;2023-02-28T04:46:22;46.67;;;20.90;;
7833;SDS011;3962;42.696;23.354;2023-02-28T04:48:49;44.43;;;21.63;;
7833;SDS011;3962;42.696;23.354;2023-02-28T04:51:17;49.73;;;21.37;;
7833;SDS011;3962;42.696;23.354;2023-02-28T04:53:45;51.47;;;22.67;;
7833;SDS011;3962;42.696;23.354;2023-02-28T04:56:13;55.30;;;21.77;;
7833;SDS011;3962;42.696;23.354;2023-02-28T04:58:43;61.70;;;24.17;;
7833;SDS011;3962;42.696;23.354;2023-02-28T05:01:16;56.00;;;22.77;;
7833;SDS011;3962;42.696;23.354;2023-02-28T05:03:47;53.10;;;24.13;;
7833;SDS011;3962;42.696;23.354;2023-02-28T05:06:15;52.70;;;22.53;;
7833;SDS011;3962;42.696;23.354;2023-02-28T05:08:42;69.13;;;24.20;;
7833;SDS011;3962;42.696;23.354;2023-02-28T05:11:13;60.60;;;24.97;;
7833;SDS011;3962;42.696;23.354;2023-02-28T05:13:43;63.53;;;26.20;;
7833;SDS011;3962;42.696;23.354;2023-02-28T05:16:11;59.13;;;25.53;;
7833;SDS011;3962;42.696;23.354;2023-02-28T05:18:38;62.13;;;27.63;;
7833;SDS011;3962;42.696;23.354;2023-02-28T05:21:05;54.40;;;25.60;;
7833;SDS011;3962;42.696;23.354;2023-02-28T05:23:32;68.03;;;27.80;;
7833;SDS011;3962;42.696;23.354;2023-02-28T05:25:59;69.20;;;28.60;;
7833;SDS011;3962;42.696;23.354;2023-02-28T05:28:26;69.50;;;27.60;;
7833;SDS011;3962;42.696;23.354;2023-02-28T05:30:54;76.33;;;28.80;;
7833;SDS011;3962;42.696;23.354;2023-02-28T05:33:21;65.17;;;27.77;;
7833;SDS011;3962;42.696;23.354;2023-02-28T05:35:48;72.90;;;28.87;;
7833;SDS011;3962;42.696;23.354;2023-02-28T05:38:15;76.60;;;28.87;;
7833;SDS011;3962;42.696;23.354;2023-02-28T05:40:42;64.33;;;28.57;;
7833;SDS011;3962;42.696;23.354;2023-02-28T05:43:10;70.20;;;26.63;;
7833;SDS011;3962;42.696;23.354;2023-02-28T05:45:38;62.60;;;27.50;;
7833;SDS011;3962;42.696;23.354;2023-02-28T05:48:07;70.83;;;29.17;;
7833;SDS011;3962;42.696;23.354;2023-02-28T05:50:34;61.40;;;27.13;;
7833;SDS011;3962;42.696;23.354;2023-02-28T05:53:01;62.80;;;27.77;;
7833;SDS011;3962;42.696;23.354;2023-02-28T05:55:28;64.33;;;27.27;;
7833;SDS011;3962;42.696;23.354;2023-02-28T05:57:55;60.90;;;27.13;;
7833;SDS011;3962;42.696;23.354;2023-02-28T06:00:22;59.50;;;27.60;;
7833;SDS011;3962;42.696;23.354;2023-02-28T06:02:49;60.50;;;28.37;;
7833;SDS011;3962;42.696;23.354;2023-02-28T06:05:19;56.63;;;26.13;;
7833;SDS011;3962;42.696;23.354;2023-02-28T06:07:46;59.83;;;26.63;;
7833;SDS011;3962;42.696;23.354;2023-02-28T06:10:13;59.63;;;26.37;;
7833;SDS011;3962;42.696;23.354;2023-02-28T06:12:41;49.60;;;24.00;;
7833;SDS011;3962;42.696;23.354;2023-02-28T06:15:09;53.70;;;25.17;;
7833;SDS011;3962;42.696;23.354;2023-02-28T06:17:38;58.87;;;28.63;;
7833;SDS011;3962;42.696;23.354;2023-02-28T06:20:05;53.37;;;26.03;;
7833;SDS011;3962;42.696;23.354;2023-02-28T06:22:35;58.70;;;25.87;;
7833;SDS011;3962;42.696;23.354;2023-02-28T06:25:02;62.57;;;29.13;;
7833;SDS011;3962;42.696;23.354;2023-02-28T06:27:30;57.57;;;25.93;;
7833;SDS011;3962;42.696;23.354;2023-02-28T06:29:56;57.90;;;27.70;;
7833;SDS011;3962;42.696;23.354;2023-02-28T06:32:23;55.20;;;28.23;;
7833;SDS011;3962;42.696;23.354;2023-02-28T06:34:50;60.20;;;26.90;;
7833;SDS011;3962;42.696;23.354;2023-02-28T06:37:18;56.07;;;26.57;;
7833;SDS011;3962;42.696;23.354;2023-02-28T06:39:46;56.33;;;27.00;;
7833;SDS011;3962;42.696;23.354;2023-02-28T06:42:13;59.00;;;26.53;;
7833;SDS011;3962;42.696;23.354;2023-02-28T06:44:40;51.80;;;23.87;;
7833;SDS011;3962;42.696;23.354;2023-02-28T06:47:08;61.67;;;26.20;;
7833;SDS011;3962;42.696;23.354;2023-02-28T06:49:35;56.87;;;26.33;;
7833;SDS011;3962;42.696;23.354;2023-02-28T06:52:03;57.83;;;26.50;;
7833;SDS011;3962;42.696;23.354;2023-02-28T06:54:30;59.90;;;27.20;;
7833;SDS011;3962;42.696;23.354;2023-02-28T06:56:59;57.57;;;25.90;;
7833;SDS011;3962;42.696;23.354;2023-02-28T06:59:26;53.60;;;25.47;;
7833;SDS011;3962;42.696;23.354;2023-02-28T07:01:52;63.20;;;27.80;;
7833;SDS011;3962;42.696;23.354;2023-02-28T07:04:20;59.13;;;26.73;;
7833;SDS011;3962;42.696;23.354;2023-02-28T07:06:47;55.47;;;25.17;;
7833;SDS011;3962;42.696;23.354;2023-02-28T07:09:13;52.63;;;24.67;;
7833;SDS011;3962;42.696;23.354;2023-02-28T07:11:41;59.90;;;27.07;;
7833;SDS011;3962;42.696;23.354;2023-02-28T07:14:10;53.93;;;24.83;;
7833;SDS011;3962;42.696;23.354;2023-02-28T07:16:37;52.13;;;24.67;;
7833;SDS011;3962;42.696;23.354;2023-02-28T07:19:04;52.70;;;24.03;;
7833;SDS011;3962;42.696;23.354;2023-02-28T07:21:31;67.57;;;32.00;;
7833;SDS011;3962;42.696;23.354;2023-02-28T07:23:59;53.37;;;26.70;;
7833;SDS011;3962;42.696;23.354;2023-02-28T07:26:25;50.03;;;25.93;;
7833;SDS011;3962;42.696;23.354;2023-02-28T07:28:52;55.27;;;26.37;;
7833;SDS011;3962;42.696;23.354;2023-02-28T07:31:21;49.53;;;25.57;;
7833;SDS011;3962;42.696;23.354;2023-02-28T07:33:49;53.27;;;25.97;;
7833;SDS011;3962;42.696;23.354;2023-02-28T07:36:16;52.07;;;26.60;;
7833;SDS011;3962;42.696;23.354;2023-02-28T07:38:45;50.73;;;23.53;;
7833;SDS011;3962;42.696;23.354;2023-02-28T07:41:13;44.23;;;23.87;;
7833;SDS011;3962;42.696;23.354;2023-02-28T07:43:40;45.27;;;24.23;;
7833;SDS011;3962;42.696;23.354;2023-02-28T07:46:08;50.53;;;24.57;;
7833;SDS011;3962;42.696;23.354;2023-02-28T07:48:39;44.20;;;23.30;;
7833;SDS011;3962;42.696;23.354;2023-02-28T07:51:09;45.93;;;24.47;;
7833;SDS011;3962;42.696;23.354;2023-02-28T07:53:37;40.77;;;23.10;;
7833;SDS011;3962;42.696;23.354;2023-02-28T07:56:04;38.77;;;22.90;;
7833;SDS011;3962;42.696;23.354;2023-02-28T07:58:32;42.53;;;22.90;;
7833;SDS011;3962;42.696;23.354;2023-02-28T08:01:04;42.43;;;24.00;;
7833;SDS011;3962;42.696;23.354;2023-02-28T08:03:32;41.70;;;24.30;;
7833;SDS011;3962;42.696;23.354;2023-02-28T08:06:02;48.17;;;26.60;;
7833;SDS011;3962;42.696;23.354;2023-02-28T08:08:30;44.10;;;26.30;;
7833;SDS011;3962;42.696;23.354;2023-02-28T08:10:58;44.90;;;24.37;;
7833;SDS011;3962;42.696;23.354;2023-02-28T08:13:26;39.73;;;24.07;;
7833;SDS011;3962;42.696;23.354;2023-02-28T08:15:53;44.63;;;24.47;;
7833;SDS011;3962;42.696;23.354;2023-02-28T08:18:21;45.93;;;24.03;;
7833;SDS011;3962;42.696;23.354;2023-02-28T08:20:48;43.93;;;25.23;;
7833;SDS011;3962;42.696;23.354;2023-02-28T08:23:17;42.73;;;24.73;;
7833;SDS011;3962;42.696;23.354;2023-02-28T08:25:44;45.63;;;24.67;;
7833;SDS011;3962;42.696;23.354;2023-02-28T08:28:10;44.37;;;24.20;;
7833;SDS011;3962;42.696;23.354;2023-02-28T08:30:39;44.70;;;25.33;;
7833;SDS011;3962;42.696;23.354;2023-02-28T08:33:06;43.50;;;24.57;;
7833;SDS011;3962;42.696;23.354;2023-02-28T08:35:35;44.27;;;23.43;;
7833;SDS011;3962;42.696;23.354;2023-02-28T08:38:02;43.83;;;24.40;;
7833;SDS011;3962;42.696;23.354;2023-02-28T08:40:30;47.83;;;25.10;;
7833;SDS011;3962;42.696;23.354;2023-02-28T08:42:57;45.37;;;23.23;;
7833;SDS011;3962;42.696;23.354;2023-02-28T08:45:25;45.27;;;22.87;;
7833;SDS011;3962;42.696;23.354;2023-02-28T08:47:53;45.47;;;23.80;;
7833;SDS011;3962;42.696;23.354;2023-02-28T08:50:21;43.63;;;23.27;;
7833;SDS011;3962;42.696;23.354;2023-02-28T08:52:48;35.87;;;18.30;;
7833;SDS011;3962;42.696;23.354;2023-02-28T08:55:15;32.10;;;16.57;;
7833;SDS011;3962;42.696;23.354;2023-02-28T08:57:43;35.87;;;16.83;;
7833;SDS011;3962;42.696;23.354;2023-02-28T09:00:11;35.93;;;16.27;;
7833;SDS011;3962;42.696;23.354;2023-02-28T09:02:39;35.30;;;16.00;;
7833;SDS011;3962;42.696;23.354;2023-02-28T09:05:09;32.77;;;16.70;;
7833;SDS011;3962;42.696;23.354;2023-02-28T09:07:36;39.27;;;15.53;;
7833;SDS011;3962;42.696;23.354;2023-02-28T09:10:03;39.50;;;16.37;;
7833;SDS011;3962;42.696;23.354;2023-02-28T09:12:32;37.17;;;15.40;;
7833;SDS011;3962;42.696;23.354;2023-02-28T09:15:02;35.50;;;15.27;;
7833;SDS011;3962;42.696;23.354;2023-02-28T09:17:30;33.23;;;15.43;;
7833;SDS011;3962;42.696;23.354;2023-02-28T09:19:57;34.60;;;15.50;;
7833;SDS011;3962;42.696;23.354;2023-02-28T09:22:24;27.37;;;14.17;;
7833;SDS011;3962;42.696;23.354;2023-02-28T09:24:51;38.13;;;15.53;;
7833;SDS011;3962;42.696;23.354;2023-02-28T09:27:18;38.63;;;14.90;;
7833;SDS011;3962;42.696;23.354;2023-02-28T09:29:44;33.57;;;15.50;;
7833;SDS011;3962;42.696;23.354;2023-02-28T09:32:14;34.27;;;15.87;;
7833;SDS011;3962;42.696;23.354;2023-02-28T09:34:43;36.80;;;14.60;;
7833;SDS011;3962;42.696;23.354;2023-02-28T09:37:10;27.03;;;14.10;;
7833;SDS011;3962;42.696;23.354;2023-02-28T09:39:36;31.03;;;14.30;;
7833;SDS011;3962;42.696;23.354;2023-02-28T09:42:03;34.97;;;15.47;;
7833;SDS011;3962;42.696;23.354;2023-02-28T09:44:35;38.33;;;18.43;;
7833;SDS011;3962;42.696;23.354;2023-02-28T09:47:07;35.93;;;16.97;;
7833;SDS011;3962;42.696;23.354;2023-02-28T09:49:42;40.83;;;17.00;;
7833;SDS011;3962;42.696;23.354;2023-02-28T09:52:13;32.60;;;14.30;;
7833;SDS011;3962;42.696;23.354;2023-02-28T09:54:44;27.60;;;12.73;;
7833;SDS011;3962;42.696;23.354;2023-02-28T09:57:14;27.93;;;14.47;;
7833;SDS011;3962;42.696;23.354;2023-02-28T09:59:49;32.67;;;13.53;;
7833;SDS011;3962;42.696;23.354;2023-02-28T10:02:39;34.57;;;12.70;;
7833;SDS011;3962;42.696;23.354;2023-02-28T10:05:15;24.87;;;12.07;;
7833;SDS011;3962;42.696;23.354;2023-02-28T10:07:50;34.43;;;14.30;;
7833;SDS011;3962;42.696;23.354;2023-02-28T10:10:33;27.50;;;13.47;;
7833;SDS011;3962;42.696;23.354;2023-02-28T10:13:05;26.80;;;13.50;;
7833;SDS011;3962;42.696;23.354;2023-02-28T10:15:39;27.27;;;11.20;;
7833;SDS011;3962;42.696;23.354;2023-02-28T10:18:09;33.33;;;12.73;;
7833;SDS011;3962;42.696;23.354;2023-02-28T10:20:40;29.97;;;12.07;;
7833;SDS011;3962;42.696;23.354;2023-02-28T10:23:11;31.77;;;12.63;;
7833;SDS011;3962;42.696;23.354;2023-02-28T10:25:44;28.17;;;9.67;;
7833;SDS011;3962;42.696;23.354;2023-02-28T10:28:15;23.63;;;11.60;;
7833;SDS011;3962;42.696;23.354;2023-02-28T10:30:45;38.07;;;13.13;;
7833;SDS011;3962;42.696;23.354;2023-02-28T10:33:18;29.13;;;11.83;;
7833;SDS011;3962;42.696;23.354;2023-02-28T10:35:49;23.50;;;9.67;;
7833;SDS011;3962;42.696;23.354;2023-02-28T10:38:17;30.37;;;11.80;;
7833;SDS011;3962;42.696;23.354;2023-02-28T10:40:46;32.97;;;12.27;;
7833;SDS011;3962;42.696;23.354;2023-02-28T10:43:20;33.00;;;11.83;;
7833;SDS011;3962;42.696;23.354;2023-02-28T10:45:54;33.93;;;11.63;;
7833;SDS011;3962;42.696;23.354;2023-02-28T10:48:34;21.07;;;11.73;;
7833;SDS011;3962;42.696;23.354;2023-02-28T10:51:06;30.63;;;10.17;;
7833;SDS011;3962;42.696;23.354;2023-02-28T10:53:36;35.13;;;13.73;;
7833;SDS011;3962;42.696;23.354;2023-02-28T10:56:12;26.13;;;12.47;;
7833;SDS011;3962;42.696;23.354;2023-02-28T10:58:47;27.37;;;13.40;;
7833;SDS011;3962;42.696;23.354;2023-02-28T11:01:20;28.20;;;11.57;;
7833;SDS011;3962;42.696;23.354;2023-02-28T11:03:49;35.30;;;11.97;;
7833;SDS011;3962;42.696;23.354;2023-02-28T11:06:19;32.87;;;13.43;;
7833;SDS011;3962;42.696;23.354;2023-02-28T11:08:49;25.47;;;11.10;;
7833;SDS011;3962;42.696;23.354;2023-02-28T11:11:18;32.47;;;14.03;;
7833;SDS011;3962;42.696;23.354;2023-02-28T11:13:47;30.43;;;13.70;;
7833;SDS011;3962;42.696;23.354;2023-02-28T11:16:17;27.30;;;12.10;;
7833;SDS011;3962;42.696;23.354;2023-02-28T11:18:47;27.87;;;13.37;;
7833;SDS011;3962;42.696;23.354;2023-02-28T11:21:16;31.50;;;12.57;;
7833;SDS011;3962;42.696;23.354;2023-02-28T11:23:49;32.50;;;14.77;;
7833;SDS011;3962;42.696;23.354;2023-02-28T11:29:09;52.30;;;16.43;;
7833;SDS011;3962;42.696;23.354;2023-02-28T11:31:38;26.23;;;11.43;;
7833;SDS011;3962;42.696;23.354;2023-02-28T11:36:55;26.13;;;11.70;;
7833;SDS011;3962;42.696;23.354;2023-02-28T11:39:24;25.03;;;11.67;;
7833;SDS011;3962;42.696;23.354;2023-02-28T11:41:59;27.50;;;12.87;;
7833;SDS011;3962;42.696;23.354;2023-02-28T11:44:51;30.43;;;12.73;;
7833;SDS011;3962;42.696;23.354;2023-02-28T11:47:31;52.03;;;16.07;;
7833;SDS011;3962;42.696;23.354;2023-02-28T11:50:04;24.33;;;10.73;;
7833;SDS011;3962;42.696;23.354;2023-02-28T11:52:55;17.80;;;10.40;;
7833;SDS011;3962;42.696;23.354;2023-02-28T11:55:27;26.67;;;11.30;;
7833;SDS011;3962;42.696;23.354;2023-02-28T11:58:02;28.37;;;11.33;;
7833;SDS011;3962;42.696;23.354;2023-02-28T12:00:47;28.63;;;11.57;;
7833;SDS011;3962;42.696;23.354;2023-02-28T12:03:30;26.37;;;10.93;;
7833;SDS011;3962;42.696;23.354;2023-02-28T12:06:10;25.73;;;11.63;;
7833;SDS011;3962;42.696;23.354;2023-02-28T12:08:49;23.57;;;10.97;;
7833;SDS011;3962;42.696;23.354;2023-02-28T12:11:37;28.93;;;11.60;;
7833;SDS011;3962;42.696;23.354;2023-02-28T12:17:14;37.33;;;13.03;;
7833;SDS011;3962;42.696;23.354;2023-02-28T12:19:56;27.23;;;10.80;;
7833;SDS011;3962;42.696;23.354;2023-02-28T12:22:35;26.87;;;11.30;;
7833;SDS011;3962;42.696;23.354;2023-02-28T12:25:28;23.83;;;9.70;;
7833;SDS011;3962;42.696;23.354;2023-02-28T12:28:13;33.53;;;11.50;;
7833;SDS011;3962;42.696;23.354;2023-02-28T12:30:47;24.83;;;10.93;;
7833;SDS011;3962;42.696;23.354;2023-02-28T12:33:17;21.37;;;10.43;;
7833;SDS011;3962;42.696;23.354;2023-02-28T12:35:49;22.60;;;11.73;;
7833;SDS011;3962;42.696;23.354;2023-02-28T12:38:21;22.67;;;8.93;;
7833;SDS011;3962;42.696;23.354;2023-02-28T12:40:52;30.97;;;11.90;;
7833;SDS011;3962;42.696;23.354;2023-02-28T12:43:25;27.83;;;11.33;;
7833;SDS011;3962;42.696;23.354;2023-02-28T12:45:55;16.10;;;9.07;;
7833;SDS011;3962;42.696;23.354;2023-02-28T12:48:26;18.63;;;9.70;;
7833;SDS011;3962;42.696;23.354;2023-02-28T12:50:58;24.13;;;11.17;;
7833;SDS011;3962;42.696;23.354;2023-02-28T12:53:27;24.07;;;11.10;;
7833;SDS011;3962;42.696;23.354;2023-02-28T12:56:07;25.13;;;10.87;;
7833;SDS011;3962;42.696;23.354;2023-02-28T12:58:39;26.90;;;11.77;;
7833;SDS011;3962;42.696;23.354;2023-02-28T13:01:20;22.23;;;9.50;;
7833;SDS011;3962;42.696;23.354;2023-02-28T13:04:13;27.07;;;11.10;;
7833;SDS011;3962;42.696;23.354;2023-02-28T13:07:08;22.83;;;12.00;;
7833;SDS011;3962;42.696;23.354;2023-02-28T13:09:51;25.20;;;11.33;;
7833;SDS011;3962;42.696;23.354;2023-02-28T13:12:21;24.47;;;10.00;;
7833;SDS011;3962;42.696;23.354;2023-02-28T13:14:49;20.20;;;9.73;;
7833;SDS011;3962;42.696;23.354;2023-02-28T13:17:19;30.33;;;11.63;;
7833;SDS011;3962;42.696;23.354;2023-02-28T13:19:55;23.43;;;11.40;;
7833;SDS011;3962;42.696;23.354;2023-02-28T13:22:37;27.23;;;11.00;;
7833;SDS011;3962;42.696;23.354;2023-02-28T13:28:56;30.23;;;13.10;;
7833;SDS011;3962;42.696;23.354;2023-02-28T13:31:32;32.03;;;12.23;;
7833;SDS011;3962;42.696;23.354;2023-02-28T13:34:19;34.67;;;12.17;;
7833;SDS011;3962;42.696;23.354;2023-02-28T13:36:46;22.10;;;10.80;;
7833;SDS011;3962;42.696;23.354;2023-02-28T13:42:30;25.53;;;11.70;;
7833;SDS011;3962;42.696;23.354;2023-02-28T13:45:23;25.53;;;11.00;;
7833;SDS011;3962;42.696;23.354;2023-02-28T13:47:51;27.00;;;10.67;;
7833;SDS011;3962;42.696;23.354;2023-02-28T13:50:22;23.40;;;11.17;;
7833;SDS011;3962;42.696;23.354;2023-02-28T13:55:56;21.30;;;10.00;;
7833;SDS011;3962;42.696;23.354;2023-02-28T14:01:26;26.63;;;11.07;;
7833;SDS011;3962;42.696;23.354;2023-02-28T14:04:24;24.07;;;9.90;;
7833;SDS011;3962;42.696;23.354;2023-02-28T14:07:19;16.00;;;9.43;;
7833;SDS011;3962;42.696;23.354;2023-02-28T14:09:52;23.20;;;10.20;;
7833;SDS011;3962;42.696;23.354;2023-02-28T14:15:38;24.63;;;9.87;;
7833;SDS011;3962;42.696;23.354;2023-02-28T14:18:25;20.20;;;9.40;;
7833;SDS011;3962;42.696;23.354;2023-02-28T14:20:58;25.50;;;10.73;;
7833;SDS011;3962;42.696;23.354;2023-02-28T14:23:46;25.97;;;10.77;;
7833;SDS011;3962;42.696;23.354;2023-02-28T14:26:30;28.30;;;12.00;;
7833;SDS011;3962;42.696;23.354;2023-02-28T14:29:16;20.47;;;10.00;;
7833;SDS011;3962;42.696;23.354;2023-02-28T14:32:13;18.17;;;10.63;;
7833;SDS011;3962;42.696;23.354;2023-02-28T14:34:50;21.00;;;10.17;;
7833;SDS011;3962;42.696;23.354;2023-02-28T14:37:24;24.33;;;11.07;;
7833;SDS011;3962;42.696;23.354;2023-02-28T14:39:55;19.77;;;9.67;;
7833;SDS011;3962;42.696;23.354;2023-02-28T14:42:28;21.23;;;10.10;;
7833;SDS011;3962;42.696;23.354;2023-02-28T14:45:17;19.30;;;10.20;;
7833;SDS011;3962;42.696;23.354;2023-02-28T14:47:44;22.20;;;10.70;;
7833;SDS011;3962;42.696;23.354;2023-02-28T14:50:18;21.20;;;10.37;;
7833;SDS011;3962;42.696;23.354;2023-02-28T14:52:47;25.47;;;10.50;;
7833;SDS011;3962;42.696;23.354;2023-02-28T14:55:20;27.77;;;11.83;;
7833;SDS011;3962;42.696;23.354;2023-02-28T14:57:53;27.00;;;11.17;;
7833;SDS011;3962;42.696;23.354;2023-02-28T15:00:22;21.73;;;12.00;;
7833;SDS011;3962;42.696;23.354;2023-02-28T15:02:50;20.17;;;10.37;;
7833;SDS011;3962;42.696;23.354;2023-02-28T15:05:38;23.97;;;10.50;;
7833;SDS011;3962;42.696;23.354;2023-02-28T15:08:05;21.67;;;10.40;;
7833;SDS011;3962;42.696;23.354;2023-02-28T15:10:38;23.37;;;11.00;;
7833;SDS011;3962;42.696;23.354;2023-02-28T15:13:10;20.17;;;11.13;;
7833;SDS011;3962;42.696;23.354;2023-02-28T15:15:41;30.03;;;11.80;;
7833;SDS011;3962;42.696;23.354;2023-02-28T15:18:14;22.83;;;10.60;;
7833;SDS011;3962;42.696;23.354;2023-02-28T15:20:51;22.33;;;10.27;;
7833;SDS011;3962;42.696;23.354;2023-02-28T15:23:19;30.80;;;12.03;;
7833;SDS011;3962;42.696;23.354;2023-02-28T15:25:48;20.40;;;11.03;;
7833;SDS011;3962;42.696;23.354;2023-02-28T15:28:18;15.90;;;9.83;;
7833;SDS011;3962;42.696;23.354;2023-02-28T15:30:57;23.47;;;10.23;;
7833;SDS011;3962;42.696;23.354;2023-02-28T15:33:26;22.23;;;12.37;;